Time;durP1;ratioP1;P1;durP2;ratioP2;P2;SDS_P1;SDS_P2;PMS_P1;PMS_P2;Temp;Humidity;BMP_temperature;BMP_pressure;BME280_temperature;BME280_humidity;BME280_pressure;Samples;Min_cycle;Max_cycle;Signal;HPM_P1;HPM_P2
2023/01/14 00:01:21;;;;;;;;;;;;;;;11.29;58.32;97693.38;4205331;28;5835;-70
2023/01/14 00:03:24;;;;;;;;;;;;;;;11.28;58.43;97694.38;4202536;28;5717;-70
2023/01/14 00:05:27;;;;;;;;;;;;;;;11.25;58.69;97686.81;4202469;28;5831;-70
2023/01/14 00:07:30;;;;;;;;;;;;;;;11.24;58.46;97690.44;4203687;28;5942;-69
2023/01/14 00:09:32;;;;;;;;;;;;;;;11.22;58.42;97681.88;4205538;28;5685;-70
2023/01/14 00:11:48;;;;;;;;;;;;;;;11.19;58.63;97677.72;4202205;28;5771;-70
2023/01/14 00:13:51;;;;;;;;;;;;;;;11.19;58.70;97672.44;4201976;28;5692;-70
2023/01/14 00:15:56;;;;;;;;;;;;;;;11.16;58.26;97670.16;4204218;28;6371;-70
2023/01/14 00:18:00;;;;;;;;;;;;;;;11.15;58.51;97671.16;4203890;28;5681;-70
2023/01/14 00:20:03;;;;;;;;;;;;;;;11.16;58.67;97664.03;4201969;28;5792;-70
2023/01/14 00:22:06;;;;;;;;;;;;;;;11.15;58.56;97657.09;4202970;28;5693;-70
2023/01/14 00:24:09;;;;;;;;;;;;;;;11.13;58.68;97657.28;4203066;28;5689;-70
2023/01/14 00:26:14;;;;;;;;;;;;;;;11.12;58.70;97662.75;4203816;28;5685;-70
2023/01/14 00:28:17;;;;;;;;;;;;;;;11.09;58.37;97651.47;4201838;28;5696;-70
2023/01/14 00:30:20;;;;;;;;;;;;;;;11.09;58.75;97640.06;4201302;28;5748;-70
2023/01/14 00:32:23;;;;;;;;;;;;;;;11.10;58.33;97631.16;4200568;28;5165;-70
2023/01/14 00:34:29;;;;;;;;;;;;;;;11.09;58.60;97627.66;4204355;28;5836;-70
2023/01/14 00:36:31;;;;;;;;;;;;;;;11.09;58.39;97635.59;4205287;28;5762;-69
2023/01/14 00:38:35;;;;;;;;;;;;;;;11.11;58.81;97639.94;4201445;28;5767;-70
2023/01/14 00:40:37;;;;;;;;;;;;;;;11.12;58.57;97634.47;4201722;28;5847;-70
2023/01/14 00:42:40;;;;;;;;;;;;;;;11.11;58.65;97630.16;4201819;28;5776;-70
2023/01/14 00:44:43;;;;;;;;;;;;;;;11.07;58.73;97634.97;4201159;28;5115;-70
2023/01/14 00:46:46;;;;;;;;;;;;;;;11.05;58.33;97634.31;4204607;28;5827;-70
2023/01/14 00:48:49;;;;;;;;;;;;;;;11.06;58.56;97632.50;4203251;28;5686;-70
2023/01/14 00:50:53;;;;;;;;;;;;;;;11.13;58.17;97638.75;4201367;28;5784;-70
2023/01/14 00:52:55;;;;;;;;;;;;;;;11.14;58.44;97644.88;4201134;28;5701;-70
2023/01/14 00:54:58;;;;;;;;;;;;;;;11.14;58.57;97648.34;4197957;28;5721;-70
2023/01/14 00:57:01;;;;;;;;;;;;;;;11.15;58.41;97643.88;4196778;28;5773;-70
2023/01/14 00:59:04;;;;;;;;;;;;;;;11.14;58.42;97645.69;4202549;28;5791;-70
2023/01/14 01:01:07;;;;;;;;;;;;;;;11.15;58.34;97643.88;4201488;28;5943;-70
2023/01/14 01:03:09;;;;;;;;;;;;;;;11.17;58.43;97645.31;4200530;28;7604;-70
2023/01/14 01:05:12;;;;;;;;;;;;;;;11.19;58.25;97634.56;4201452;28;5792;-70
2023/01/14 01:07:16;;;;;;;;;;;;;;;11.22;57.91;97634.22;4200536;28;5689;-70
2023/01/14 01:09:19;;;;;;;;;;;;;;;11.20;58.11;97629.09;4200019;28;5689;-70
2023/01/14 01:11:22;;;;;;;;;;;;;;;11.18;58.42;97636.38;4203795;28;5809;-70
2023/01/14 01:13:25;;;;;;;;;;;;;;;11.20;58.30;97641.50;4205297;28;5684;-70
2023/01/14 01:15:28;;;;;;;;;;;;;;;11.23;57.95;97638.53;4202663;28;5774;-70
2023/01/14 01:17:31;;;;;;;;;;;;;;;11.26;58.12;97640.81;4205794;28;5704;-70
2023/01/14 01:19:34;;;;;;;;;;;;;;;11.28;58.28;97646.75;4205730;28;5697;-69
2023/01/14 01:21:37;;;;;;;;;;;;;;;11.30;58.12;97647.38;4203760;28;5776;-69
2023/01/14 01:23:41;;;;;;;;;;;;;;;11.28;57.73;97659.97;4199215;28;6363;-69
2023/01/14 01:25:44;;;;;;;;;;;;;;;11.28;58.21;97662.63;4203262;28;5685;-69
2023/01/14 01:27:47;;;;;;;;;;;;;;;11.30;57.91;97663.25;4211672;28;5884;-69
2023/01/14 01:29:50;;;;;;;;;;;;;;;11.28;57.74;97666.09;4204866;28;5688;-70
2023/01/14 01:31:53;;;;;;;;;;;;;;;11.24;58.15;97658.69;4210991;28;5689;-69
2023/01/14 01:33:57;;;;;;;;;;;;;;;11.25;57.77;97660.34;4208480;28;5700;-70
2023/01/14 01:36:01;;;;;;;;;;;;;;;11.29;57.97;97651.03;4203944;28;5791;-69
2023/01/14 01:38:04;;;;;;;;;;;;;;;11.33;57.62;97647.06;4203876;28;5708;-69
2023/01/14 01:40:11;;;;;;;;;;;;;;;11.33;57.62;97655.00;4203773;28;5669;-69
2023/01/14 01:42:15;;;;;;;;;;;;;;;11.34;57.64;97652.16;4195743;28;5772;-69
2023/01/14 01:44:55;;;;;;;;;;;;;;;11.34;57.65;97646.06;4203193;28;5799;-69
2023/01/14 01:46:58;;;;;;;;;;;;;;;11.35;57.77;97651.16;4203518;28;5686;-70
2023/01/14 01:49:08;;;;;;;;;;;;;;;11.35;57.62;97645.03;4203785;28;5118;-70
2023/01/14 01:51:17;;;;;;;;;;;;;;;11.35;57.95;97655.63;4196033;28;5850;-70
2023/01/14 01:53:21;;;;;;;;;;;;;;;11.35;57.58;97653.81;4206516;28;5839;-70
2023/01/14 01:55:25;;;;;;;;;;;;;;;11.36;57.85;97654.63;4207486;28;5752;-70
2023/01/14 01:57:29;;;;;;;;;;;;;;;11.40;57.46;97653.25;4203198;28;5837;-70
2023/01/14 01:59:36;;;;;;;;;;;;;;;11.43;57.59;97652.91;4201990;28;5858;-69
2023/01/14 02:01:40;;;;;;;;;;;;;;;11.41;57.65;97646.97;4203103;28;5710;-69
2023/01/14 02:03:45;;;;;;;;;;;;;;;11.44;57.78;97651.06;4198616;28;5702;-70
2023/01/14 02:05:49;;;;;;;;;;;;;;;11.44;57.81;97644.00;4200408;28;5685;-70
2023/01/14 02:07:51;;;;;;;;;;;;;;;11.46;57.71;97641.97;4202329;28;5895;-70
2023/01/14 02:09:59;;;;;;;;;;;;;;;11.46;57.65;97646.44;4202798;28;5688;-70
2023/01/14 02:12:17;;;;;;;;;;;;;;;11.46;57.49;97636.69;4202655;28;5768;-70
2023/01/14 02:14:35;;;;;;;;;;;;;;;11.47;57.81;97638.31;4204815;28;5690;-70
2023/01/14 02:16:51;;;;;;;;;;;;;;;11.47;57.82;97632.22;4198462;28;5800;-70
2023/01/14 02:19:14;;;;;;;;;;;;;;;11.48;57.73;97633.84;4203185;28;5693;-70
2023/01/14 02:21:21;;;;;;;;;;;;;;;11.47;57.82;97630.38;4198831;28;6390;-69
2023/01/14 02:23:51;;;;;;;;;;;;;;;11.46;57.49;97615.50;4202138;28;5793;-70
2023/01/14 02:26:26;;;;;;;;;;;;;;;11.49;57.79;97620.44;4194287;28;5801;-69
2023/01/14 02:28:47;;;;;;;;;;;;;;;11.50;57.83;97626.56;4185779;28;5722;-70
2023/01/14 02:30:58;;;;;;;;;;;;;;;11.50;57.73;97630.03;4204327;28;5795;-69
2023/01/14 02:33:11;;;;;;;;;;;;;;;11.50;57.58;97624.72;4205889;28;6451;-69
2023/01/14 02:35:26;;;;;;;;;;;;;;;11.49;57.89;97625.72;4195225;28;5688;-70
2023/01/14 02:37:35;;;;;;;;;;;;;;;11.50;57.61;97621.25;4192663;28;5710;-70
2023/01/14 02:39:42;;;;;;;;;;;;;;;11.49;57.65;97615.13;4196178;28;5779;-70
2023/01/14 02:44:17;;;;;;;;;;;;;;;11.48;57.73;97608.19;4202604;28;5688;-70
2023/01/14 02:46:27;;;;;;;;;;;;;;;11.49;57.30;97599.25;4192749;28;5696;-70
2023/01/14 02:48:31;;;;;;;;;;;;;;;11.49;57.77;97593.94;4204072;28;6036;-70
2023/01/14 02:50:36;;;;;;;;;;;;;;;11.49;57.60;97590.50;4203802;28;5684;-70
2023/01/14 02:52:38;;;;;;;;;;;;;;;11.48;57.47;97587.00;4201665;27;5729;-70
2023/01/14 02:54:51;;;;;;;;;;;;;;;11.48;57.22;97575.59;4201768;28;5824;-70
2023/01/14 02:56:59;;;;;;;;;;;;;;;11.48;57.39;97581.72;4201978;28;5697;-70
2023/01/14 02:59:18;;;;;;;;;;;;;;;11.48;57.49;97572.97;4201728;28;5911;-70
2023/01/14 03:01:43;;;;;;;;;;;;;;;11.46;57.31;97575.78;4202052;28;5696;-70
2023/01/14 03:04:03;;;;;;;;;;;;;;;11.46;57.60;97573.13;4204563;28;5806;-70
2023/01/14 03:06:23;;;;;;;;;;;;;;;11.45;57.62;97575.97;4187498;28;5690;-70
2023/01/14 03:08:34;;;;;;;;;;;;;;;11.45;57.70;97560.91;4196158;28;7150;-70
2023/01/14 03:10:44;;;;;;;;;;;;;;;11.45;57.08;97555.63;4201775;28;6417;-69
2023/01/14 03:12:53;;;;;;;;;;;;;;;11.44;57.55;97553.13;4203840;28;5752;-70
2023/01/14 03:15:00;;;;;;;;;;;;;;;11.43;57.31;97552.28;4201380;28;6499;-70
2023/01/14 03:17:10;;;;;;;;;;;;;;;11.43;57.40;97548.81;4202095;28;5659;-70
2023/01/14 03:19:20;;;;;;;;;;;;;;;11.41;57.17;97538.41;4202413;28;5784;-70
2023/01/14 03:21:26;;;;;;;;;;;;;;;11.42;57.60;97539.25;4201553;28;5697;-70
2023/01/14 03:23:33;;;;;;;;;;;;;;;11.40;57.60;97538.59;4201883;28;5689;-70
2023/01/14 03:25:41;;;;;;;;;;;;;;;11.39;57.16;97543.06;4202603;28;5697;-70
2023/01/14 03:27:47;;;;;;;;;;;;;;;11.38;57.51;97541.44;4202161;28;5690;-70
2023/01/14 03:29:55;;;;;;;;;;;;;;;11.37;57.17;97540.63;4202076;28;5778;-70
2023/01/14 03:32:03;;;;;;;;;;;;;;;11.36;57.37;97524.91;4202261;28;5701;-70
2023/01/14 03:34:10;;;;;;;;;;;;;;;11.35;57.43;97523.28;4202324;28;5689;-70
2023/01/14 03:36:14;;;;;;;;;;;;;;;11.33;57.55;97520.00;4201408;28;5688;-70
2023/01/14 03:38:21;;;;;;;;;;;;;;;11.32;57.15;97520.97;4201617;28;5685;-69
2023/01/14 03:40:27;;;;;;;;;;;;;;;11.32;57.47;97523.59;4202193;28;5772;-70
2023/01/14 03:42:35;;;;;;;;;;;;;;;11.31;57.33;97529.91;4202655;28;5915;-70
2023/01/14 03:44:43;;;;;;;;;;;;;;;11.29;57.34;97529.28;4202505;28;5813;-70
2023/01/14 03:46:46;;;;;;;;;;;;;;;11.29;57.35;97526.63;4202705;28;5676;-70
2023/01/14 03:48:49;;;;;;;;;;;;;;;11.29;57.60;97523.97;4201144;28;5692;-70
2023/01/14 03:51:00;;;;;;;;;;;;;;;11.29;57.47;97523.97;4203229;28;5677;-70
2023/01/14 03:53:15;;;;;;;;;;;;;;;11.25;57.67;97522.69;4206630;28;5675;-69
2023/01/14 03:55:23;;;;;;;;;;;;;;;11.27;57.34;97528.63;4209511;28;5792;-69
2023/01/14 03:57:32;;;;;;;;;;;;;;;11.25;57.70;97523.53;4201296;28;5767;-70
2023/01/14 03:59:44;;;;;;;;;;;;;;;11.27;57.49;97520.69;4201488;28;5074;-70
2023/01/14 04:01:50;;;;;;;;;;;;;;;11.26;57.45;97516.41;4200713;28;5689;-70
2023/01/14 04:03:54;;;;;;;;;;;;;;;11.26;57.67;97519.06;4201276;28;5788;-70
2023/01/14 04:05:59;;;;;;;;;;;;;;;11.25;57.37;97520.06;4203776;28;5706;-71
2023/01/14 04:08:04;;;;;;;;;;;;;;;11.24;57.48;97515.78;4201354;28;5696;-70
2023/01/14 04:10:08;;;;;;;;;;;;;;;11.23;57.38;97519.41;4202121;28;5859;-70
2023/01/14 04:12:11;;;;;;;;;;;;;;;11.23;57.60;97522.06;4202439;28;5696;-70
2023/01/14 04:16:34;;;;;;;;;;;;;;;11.24;57.39;97542.22;4200904;28;6466;-70
2023/01/14 04:18:37;;;;;;;;;;;;;;;11.26;57.61;97534.94;4196368;28;5689;-70
2023/01/14 04:20:40;;;;;;;;;;;;;;;11.24;57.40;97521.88;4197157;28;5791;-70
2023/01/14 04:22:44;;;;;;;;;;;;;;;11.24;57.67;97515.78;4206013;28;5694;-70
2023/01/14 04:24:47;;;;;;;;;;;;;;;11.23;57.51;97500.88;4193215;28;5839;-70
2023/01/14 04:26:49;;;;;;;;;;;;;;;11.24;57.70;97497.25;4201509;28;5816;-69
2023/01/14 04:28:52;;;;;;;;;;;;;;;11.21;57.46;97485.19;4201511;28;6404;-70
2023/01/14 04:30:55;;;;;;;;;;;;;;;11.21;57.40;97495.78;4202928;28;5681;-70
2023/01/14 04:32:58;;;;;;;;;;;;;;;11.22;57.54;97507.19;4203130;28;5796;-70
2023/01/14 04:35:01;;;;;;;;;;;;;;;11.19;57.43;97503.06;4201906;28;5685;-70
2023/01/14 04:37:04;;;;;;;;;;;;;;;11.18;57.49;97508.53;4195972;28;5820;-70
2023/01/14 04:39:08;;;;;;;;;;;;;;;11.17;57.55;97512.19;4198716;28;5748;-70
2023/01/14 04:42:26;;;;;;;;;;;;;;;11.15;57.43;97500.97;4204144;28;5659;-70
2023/01/14 04:43:33;;;;;;;;;;;;;;;11.14;57.46;97492.19;4195629;28;5682;-70
2023/01/14 04:45:36;;;;;;;;;;;;;;;11.14;57.59;97488.72;4201127;28;5753;-70
2023/01/14 04:47:39;;;;;;;;;;;;;;;11.10;57.72;97485.63;4200948;28;5689;-70
2023/01/14 04:49:41;;;;;;;;;;;;;;;11.07;57.65;97483.31;4199996;28;5693;-70
2023/01/14 04:51:44;;;;;;;;;;;;;;;11.04;57.42;97476.56;4201060;28;5760;-70
2023/01/14 04:53:50;;;;;;;;;;;;;;;11.04;57.31;97457.22;4201050;28;5868;-70
2023/01/14 04:55:56;;;;;;;;;;;;;;;11.04;57.41;97467.81;4201601;28;5681;-70
2023/01/14 04:57:58;;;;;;;;;;;;;;;11.04;57.81;97463.34;4201229;28;5793;-70
2023/01/14 05:00:01;;;;;;;;;;;;;;;11.03;57.46;97468.81;4200512;28;5702;-71
2023/01/14 05:02:05;;;;;;;;;;;;;;;11.01;57.66;97463.72;4201197;28;5698;-71
2023/01/14 05:04:08;;;;;;;;;;;;;;;11.01;57.62;97465.53;4201326;28;5697;-71
2023/01/14 05:06:11;;;;;;;;;;;;;;;11.01;57.39;97468.19;4201272;28;5686;-71
2023/01/14 05:08:14;;;;;;;;;;;;;;;11.00;57.78;97467.34;4201470;28;5681;-70
2023/01/14 05:10:18;;;;;;;;;;;;;;;11.00;57.60;97456.78;4201650;28;5709;-70
2023/01/14 05:12:22;;;;;;;;;;;;;;;10.97;57.64;97457.09;4201149;28;5780;-70
2023/01/14 05:14:25;;;;;;;;;;;;;;;10.96;57.70;97450.19;4199812;28;5780;-70
2023/01/14 05:16:27;;;;;;;;;;;;;;;10.96;57.49;97450.19;4199957;28;5705;-71
2023/01/14 05:18:30;;;;;;;;;;;;;;;10.94;57.70;97438.13;4188935;28;5829;-71
2023/01/14 05:20:33;;;;;;;;;;;;;;;10.93;57.65;97439.97;4195707;28;5689;-71
2023/01/14 05:22:36;;;;;;;;;;;;;;;10.89;57.75;97433.41;4192951;28;6388;-69
2023/01/14 05:24:39;;;;;;;;;;;;;;;10.88;57.43;97431.75;4199905;28;5705;-70
2023/01/14 05:26:41;;;;;;;;;;;;;;;10.90;57.60;97435.03;4200804;28;5689;-71
2023/01/14 05:28:46;;;;;;;;;;;;;;;10.89;57.19;97429.94;4201039;28;5686;-70
2023/01/14 05:30:48;;;;;;;;;;;;;;;10.87;57.46;97427.44;4200453;28;5685;-72
2023/01/14 05:32:51;;;;;;;;;;;;;;;10.83;57.54;97436.75;4201007;28;5689;-71
2023/01/14 05:34:54;;;;;;;;;;;;;;;10.84;57.71;97440.22;4201095;28;5698;-71
2023/01/14 05:36:57;;;;;;;;;;;;;;;10.83;57.50;97443.84;4201055;28;5694;-71
2023/01/14 05:38:59;;;;;;;;;;;;;;;10.82;57.14;97437.75;4200455;28;5871;-71
2023/01/14 05:41:02;;;;;;;;;;;;;;;10.82;57.01;97429.00;4200748;28;5767;-71
2023/01/14 05:45:41;;;;;;;;;;;;;;;10.74;57.11;97436.00;4193985;28;5686;-70
2023/01/14 05:47:44;;;;;;;;;;;;;;;10.71;57.11;97424.94;4201057;28;5785;-72
2023/01/14 05:49:47;;;;;;;;;;;;;;;10.70;57.17;97424.13;4201142;28;5694;-71
2023/01/14 05:51:49;;;;;;;;;;;;;;;10.66;57.12;97425.50;4200382;28;6501;-70
2023/01/14 05:53:52;;;;;;;;;;;;;;;10.65;57.31;97428.31;4197781;28;5689;-72
2023/01/14 05:55:56;;;;;;;;;;;;;;;10.63;57.08;97422.38;4182403;28;5754;-71
2023/01/14 05:57:59;;;;;;;;;;;;;;;10.65;57.27;97413.28;4183182;28;5710;-71
2023/01/14 06:00:02;;;;;;;;;;;;;;;10.65;56.88;97423.03;4199140;28;5693;-71
2023/01/14 06:06:48;;;;;;;;;;;;;;;10.63;56.86;97402.03;4203359;28;6640;-69
2023/01/14 06:08:54;;;;;;;;;;;;;;;10.64;56.79;97397.56;4203451;28;7091;-71
2023/01/14 06:10:58;;;;;;;;;;;;;;;10.65;56.75;97399.25;4203445;28;5932;-70
2023/01/14 06:13:04;;;;;;;;;;;;;;;10.66;56.55;97396.41;4203304;28;7715;-70
2023/01/14 06:15:08;;;;;;;;;;;;;;;10.67;56.69;97405.16;4203284;28;5757;-70
2023/01/14 06:17:21;;;;;;;;;;;;;;;10.67;56.64;97405.16;4203677;28;5698;-70
2023/01/14 06:19:23;;;;;;;;;;;;;;;10.67;56.34;97397.22;4203447;28;5694;-70
2023/01/14 06:21:29;;;;;;;;;;;;;;;10.67;56.50;97399.88;4202088;28;5743;-70
2023/01/14 06:23:32;;;;;;;;;;;;;;;10.67;56.51;97402.53;4203373;28;5689;-71
2023/01/14 06:25:36;;;;;;;;;;;;;;;10.66;56.58;97396.41;4203617;28;5725;-71
2023/01/14 06:27:38;;;;;;;;;;;;;;;10.67;56.54;97386.66;4203201;28;5720;-70
2023/01/14 06:29:41;;;;;;;;;;;;;;;10.67;56.45;97391.94;4203150;28;5717;-70
2023/01/14 06:31:44;;;;;;;;;;;;;;;10.65;56.51;97397.41;4203546;28;5788;-70
2023/01/14 06:33:48;;;;;;;;;;;;;;;10.65;56.15;97391.31;4203310;28;5741;-71
2023/01/14 06:35:51;;;;;;;;;;;;;;;10.65;56.23;97391.31;4201174;28;6369;-71
2023/01/14 06:37:53;;;;;;;;;;;;;;;10.64;56.37;97387.00;4189588;28;5701;-71
2023/01/14 06:39:56;;;;;;;;;;;;;;;10.64;56.32;97376.41;4193432;28;5098;-70
2023/01/14 06:41:59;;;;;;;;;;;;;;;10.63;56.26;97372.13;4201811;28;5758;-69
2023/01/14 06:44:03;;;;;;;;;;;;;;;10.65;56.12;97370.16;4195470;28;5821;-70
2023/01/14 06:46:05;;;;;;;;;;;;;;;10.64;56.02;97373.78;4195046;28;5913;-70
2023/01/14 06:48:08;;;;;;;;;;;;;;;10.63;55.92;97374.78;4196202;28;5780;-70
2023/01/14 06:50:13;;;;;;;;;;;;;;;10.64;56.10;97373.78;4190289;28;5719;-69
2023/01/14 06:52:16;;;;;;;;;;;;;;;10.64;55.92;97368.47;4187565;28;5875;-69
2023/01/14 06:54:19;;;;;;;;;;;;;;;10.66;56.07;97363.84;4193503;28;7857;-72
2023/01/14 06:56:21;;;;;;;;;;;;;;;10.68;56.07;97372.44;4195706;28;6375;-68
2023/01/14 06:58:24;;;;;;;;;;;;;;;10.68;56.11;97362.69;4197300;28;5847;-70
2023/01/14 07:00:27;;;;;;;;;;;;;;;10.69;55.98;97355.56;4195213;28;5709;-70
2023/01/14 07:02:30;;;;;;;;;;;;;;;10.70;55.99;97352.72;4191895;28;6562;-70
2023/01/14 07:04:33;;;;;;;;;;;;;;;10.70;55.94;97357.19;4198887;28;5705;-71
2023/01/14 07:06:37;;;;;;;;;;;;;;;10.72;56.09;97357.84;4199558;28;5982;-70
2023/01/14 07:08:40;;;;;;;;;;;;;;;10.72;55.78;97363.94;4194974;28;5723;-70
2023/01/14 07:10:43;;;;;;;;;;;;;;;10.73;55.96;97362.13;4188636;28;5821;-72
2023/01/14 07:12:47;;;;;;;;;;;;;;;10.74;56.15;97356.66;4188805;28;5769;-70
2023/01/14 07:14:50;;;;;;;;;;;;;;;10.76;55.88;97348.56;4196150;28;5701;-69
2023/01/14 07:16:53;;;;;;;;;;;;;;;10.78;55.75;97342.09;4195203;28;5701;-69
2023/01/14 07:18:55;;;;;;;;;;;;;;;10.79;55.71;97327.03;4194955;28;5772;-70
2023/01/14 07:20:59;;;;;;;;;;;;;;;10.81;55.82;97322.38;4201171;28;5783;-71
2023/01/14 07:23:04;;;;;;;;;;;;;;;10.81;55.83;97319.72;4194099;28;5836;-68
2023/01/14 07:25:08;;;;;;;;;;;;;;;10.82;55.86;97320.56;4193201;28;5703;-69
2023/01/14 07:27:11;;;;;;;;;;;;;;;10.81;55.82;97325.03;4191478;28;5789;-69
2023/01/14 07:29:14;;;;;;;;;;;;;;;10.81;55.72;97321.56;4191151;28;5792;-69
2023/01/14 07:31:17;;;;;;;;;;;;;;;10.80;55.62;97318.09;4199540;28;5871;-69
2023/01/14 07:33:21;;;;;;;;;;;;;;;10.80;55.95;97312.81;4191948;28;5866;-69
2023/01/14 07:35:24;;;;;;;;;;;;;;;10.81;55.84;97316.28;4196586;28;5717;-68
2023/01/14 07:37:27;;;;;;;;;;;;;;;10.79;55.64;97317.28;4190587;28;5718;-70
2023/01/14 07:39:31;;;;;;;;;;;;;;;10.77;55.66;97314.00;4191433;28;5723;-70
2023/01/14 07:41:34;;;;;;;;;;;;;;;10.78;55.53;97298.94;4197817;28;5876;-70
2023/01/14 07:43:36;;;;;;;;;;;;;;;10.77;55.71;97286.72;4193720;28;5694;-68
2023/01/14 07:45:39;;;;;;;;;;;;;;;10.78;55.72;97296.31;4187390;28;5734;-69
2023/01/14 07:47:42;;;;;;;;;;;;;;;10.78;55.86;97296.31;4192638;28;5848;-69
2023/01/14 07:49:45;;;;;;;;;;;;;;;10.77;55.84;97308.72;4192113;28;5681;-69
2023/01/14 07:51:48;;;;;;;;;;;;;;;10.77;55.84;97307.88;4193196;28;5718;-70
2023/01/14 07:53:51;;;;;;;;;;;;;;;10.78;55.47;97318.28;4196862;28;5682;-70
2023/01/14 07:55:55;;;;;;;;;;;;;;;10.78;56.01;97325.41;4195150;28;5880;-71
2023/01/14 07:57:59;;;;;;;;;;;;;;;10.79;55.78;97332.31;4190329;28;5785;-69
2023/01/14 08:00:02;;;;;;;;;;;;;;;10.77;55.80;97335.16;4191792;28;5813;-69
2023/01/14 08:02:05;;;;;;;;;;;;;;;10.76;55.89;97337.97;4194658;28;5725;-69
2023/01/14 08:04:08;;;;;;;;;;;;;;;10.74;55.99;97342.59;4185932;28;5710;-69
2023/01/14 08:06:10;;;;;;;;;;;;;;;10.72;55.68;97347.25;4200273;28;5716;-69
2023/01/14 08:08:13;;;;;;;;;;;;;;;10.66;55.70;97343.53;4196296;28;5873;-69
2023/01/14 08:10:16;;;;;;;;;;;;;;;10.66;56.06;97332.94;4190350;28;6517;-69
2023/01/14 08:12:21;;;;;;;;;;;;;;;10.67;55.52;97321.38;4199632;28;5736;-70
2023/01/14 08:14:24;;;;;;;;;;;;;;;10.68;55.92;97316.91;4191596;28;5712;-69
2023/01/14 08:16:26;;;;;;;;;;;;;;;10.67;55.42;97318.72;4200420;28;6395;-69
2023/01/14 08:18:31;;;;;;;;;;;;;;;10.70;55.59;97338.69;4192321;28;5701;-70
2023/01/14 08:20:34;;;;;;;;;;;;;;;10.72;55.64;97339.31;4192956;28;5848;-69
2023/01/14 08:22:36;;;;;;;;;;;;;;;10.73;55.51;97343.59;4196767;28;5802;-70
2023/01/14 08:24:40;;;;;;;;;;;;;;;10.73;55.83;97339.13;4197246;28;5757;-69
2023/01/14 08:26:42;;;;;;;;;;;;;;;10.75;55.56;97341.59;4194086;28;5768;-69
2023/01/14 08:28:47;;;;;;;;;;;;;;;10.78;55.25;97335.97;4187151;28;5780;-69
2023/01/14 08:30:49;;;;;;;;;;;;;;;10.82;55.32;97342.53;4194677;28;5717;-69
2023/01/14 08:32:52;;;;;;;;;;;;;;;10.86;55.46;97333.22;4189966;28;5768;-70
2023/01/14 08:34:55;;;;;;;;;;;;;;;10.87;55.52;97329.56;4192876;28;5781;-69
2023/01/14 08:37:01;;;;;;;;;;;;;;;10.89;55.46;97335.53;4198138;28;5851;-70
2023/01/14 08:39:04;;;;;;;;;;;;;;;10.90;55.03;97329.22;4190759;28;5884;-68
2023/01/14 08:41:08;;;;;;;;;;;;;;;10.93;55.04;97328.84;4195489;28;5713;-70
2023/01/14 08:43:11;;;;;;;;;;;;;;;10.95;55.29;97326.84;4193780;28;6016;-70
2023/01/14 08:45:15;;;;;;;;;;;;;;;10.98;55.64;97321.19;4191343;28;5826;-70
2023/01/14 08:47:18;;;;;;;;;;;;;;;11.02;55.54;97305.78;4196751;28;5801;-70
2023/01/14 08:49:21;;;;;;;;;;;;;;;11.03;55.24;97302.94;4193152;28;5823;-70
2023/01/14 08:51:26;;;;;;;;;;;;;;;11.05;55.42;97298.28;4193265;28;5714;-70
2023/01/14 08:53:29;;;;;;;;;;;;;;;11.06;55.21;97307.06;4191593;28;5837;-70
2023/01/14 08:55:31;;;;;;;;;;;;;;;11.06;55.14;97307.88;4199425;28;5693;-69
2023/01/14 08:57:34;;;;;;;;;;;;;;;11.08;55.38;97312.97;4187821;28;5739;-70
2023/01/14 08:59:38;;;;;;;;;;;;;;;11.08;55.10;97326.19;4194596;28;5899;-70
2023/01/14 09:01:42;;;;;;;;;;;;;;;11.08;55.34;97337.59;4196170;28;5764;-70
2023/01/14 09:04:01;;;;;;;;;;;;;;;11.09;55.22;97349.00;4183757;28;5838;-71
2023/01/14 09:06:06;;;;;;;;;;;;;;;11.08;55.14;97347.38;4190348;28;5697;-69
2023/01/14 09:17:34;;;;;;;;;;;;;;;11.07;55.16;97317.44;4183308;28;5719;-70
2023/01/14 09:19:40;;;;;;;;;;;;;;;11.08;55.28;97326.19;4189425;28;5688;-69
2023/01/14 09:21:43;;;;;;;;;;;;;;;11.08;55.22;97336.78;4187864;28;5857;-67
2023/01/14 09:23:46;;;;;;;;;;;;;;;11.11;55.12;97338.28;4194818;28;5797;-69
2023/01/14 09:25:49;;;;;;;;;;;;;;;11.14;54.91;97322.03;4191653;28;5677;-69
2023/01/14 09:27:52;;;;;;;;;;;;;;;11.17;54.88;97309.22;4188752;28;5805;-69
2023/01/14 09:29:55;;;;;;;;;;;;;;;11.21;54.89;97283.22;4183927;28;5757;-70
2023/01/14 09:31:58;;;;;;;;;;;;;;;11.21;54.68;97275.28;4197362;28;5789;-70
2023/01/14 09:34:02;;;;;;;;;;;;;;;11.24;55.00;97243.16;4199223;28;5863;-69
2023/01/14 09:36:05;;;;;;;;;;;;;;;11.24;54.75;97238.69;4200828;28;5859;-69
2023/01/14 09:38:07;;;;;;;;;;;;;;;11.25;54.72;97264.16;4200813;28;5725;-69
2023/01/14 09:40:11;;;;;;;;;;;;;;;11.28;54.42;97270.88;4200015;28;5693;-69
2023/01/14 09:42:23;;;;;;;;;;;;;;;11.29;54.54;97264.59;4198758;28;5697;-69
2023/01/14 09:44:27;;;;;;;;;;;;;;;11.33;54.62;97273.81;4196890;28;6497;-70
2023/01/14 09:46:31;;;;;;;;;;;;;;;11.35;54.67;97267.31;4199518;28;5708;-69
2023/01/14 09:48:34;;;;;;;;;;;;;;;11.38;54.29;97266.94;4192607;28;6432;-71
2023/01/14 09:50:48;;;;;;;;;;;;;;;11.39;54.51;97267.75;4192899;28;5825;-69
2023/01/14 09:53:05;;;;;;;;;;;;;;;11.41;54.21;97284.28;4187949;28;5829;-69
2023/01/14 09:55:14;;;;;;;;;;;;;;;11.43;54.18;97282.25;4191861;28;5830;-69
2023/01/14 09:57:22;;;;;;;;;;;;;;;11.43;54.19;97263.72;4197887;28;5908;-69
2023/01/14 09:59:34;;;;;;;;;;;;;;;11.43;54.27;97254.97;4195092;28;5811;-69
2023/01/14 10:01:43;;;;;;;;;;;;;;;11.43;54.39;97239.91;4190951;28;5718;-69
2023/01/14 10:03:55;;;;;;;;;;;;;;;11.45;53.98;97222.03;4193317;28;5705;-69
2023/01/14 10:06:03;;;;;;;;;;;;;;;11.46;54.34;97244.84;4202210;28;5713;-70
2023/01/14 10:08:12;;;;;;;;;;;;;;;11.45;54.24;97290.84;4202247;28;5780;-70
2023/01/14 10:10:29;;;;;;;;;;;;;;;11.42;54.14;97293.03;4202437;28;5693;-70
2023/01/14 10:12:37;;;;;;;;;;;;;;;11.39;53.86;97275.69;4202576;28;5773;-69
2023/01/14 10:14:45;;;;;;;;;;;;;;;11.42;54.18;97264.72;4202063;28;5756;-69
2023/01/14 10:16:54;;;;;;;;;;;;;;;11.45;53.92;97242.38;4202429;28;5798;-71
2023/01/14 10:19:05;;;;;;;;;;;;;;;11.46;53.92;97239.53;4201718;28;5772;-70
2023/01/14 10:21:20;;;;;;;;;;;;;;;11.50;54.05;97230.22;4202057;28;5793;-70
2023/01/14 10:23:25;;;;;;;;;;;;;;;11.50;53.81;97235.50;4195203;28;6120;-70
2023/01/14 10:25:28;;;;;;;;;;;;;;;11.49;53.73;97231.22;4201725;28;6483;-70
2023/01/14 10:27:31;;;;;;;;;;;;;;;11.48;53.81;97229.56;4201900;28;5973;-70
2023/01/14 10:29:34;;;;;;;;;;;;;;;11.47;53.74;97235.88;4201277;28;6035;-70
2023/01/14 10:31:38;;;;;;;;;;;;;;;11.45;53.90;97237.91;4201849;28;5780;-70
2023/01/14 10:33:41;;;;;;;;;;;;;;;11.45;53.87;97221.19;4200899;28;5908;-70
2023/01/14 10:35:46;;;;;;;;;;;;;;;11.50;53.69;97226.75;4193121;28;5773;-70
2023/01/14 10:37:51;;;;;;;;;;;;;;;11.49;53.63;97225.91;4194538;28;5697;-70
2023/01/14 10:39:54;;;;;;;;;;;;;;;11.48;53.71;97220.81;4192397;28;5891;-70
2023/01/14 10:42:00;;;;;;;;;;;;;;;11.50;53.79;97222.25;4192730;28;5793;-70
2023/01/14 10:44:04;;;;;;;;;;;;;;;11.52;53.61;97220.25;4197641;28;5887;-70
2023/01/14 10:46:07;;;;;;;;;;;;;;;11.51;53.62;97212.50;4187745;28;5902;-70
2023/01/14 10:48:17;;;;;;;;;;;;;;;11.54;53.77;97210.28;4194473;28;5087;-70
2023/01/14 10:50:23;;;;;;;;;;;;;;;11.58;53.51;97210.75;4191868;28;5715;-69
2023/01/14 10:52:28;;;;;;;;;;;;;;;11.59;53.76;97213.19;4198995;28;5905;-70
2023/01/14 10:54:32;;;;;;;;;;;;;;;11.58;53.41;97206.25;4195839;28;5915;-70
2023/01/14 10:56:35;;;;;;;;;;;;;;;11.59;53.62;97217.66;4193759;28;5780;-69
2023/01/14 10:58:53;;;;;;;;;;;;;;;11.59;53.82;97210.53;4189570;28;5766;-69
2023/01/14 11:01:03;;;;;;;;;;;;;;;11.59;53.54;97202.59;4193437;28;5769;-69
2023/01/14 11:03:08;;;;;;;;;;;;;;;11.58;53.39;97185.06;4199105;28;5855;-69
2023/01/14 11:05:25;;;;;;;;;;;;;;;11.56;53.33;97184.44;4192751;28;5820;-69
2023/01/14 11:07:31;;;;;;;;;;;;;;;11.57;53.48;97177.31;4188255;28;5705;-69
2023/01/14 11:09:36;;;;;;;;;;;;;;;11.57;53.52;97156.16;4196562;28;5805;-69
2023/01/14 11:11:42;;;;;;;;;;;;;;;11.62;53.54;97159.03;4196148;28;5784;-69
2023/01/14 11:13:48;;;;;;;;;;;;;;;11.65;53.35;97151.50;4196864;28;5701;-69
2023/01/14 11:15:51;;;;;;;;;;;;;;;11.68;53.22;97147.69;4193598;28;5701;-69
2023/01/14 11:17:54;;;;;;;;;;;;;;;11.68;53.53;97152.97;4191486;28;5768;-69
2023/01/14 11:20:20;;;;;;;;;;;;;;;11.70;53.46;97150.13;4192978;28;5694;-69
2023/01/14 11:22:23;;;;;;;;;;;;;;;11.66;53.28;97139.94;4198487;28;5812;-67
2023/01/14 11:24:31;;;;;;;;;;;;;;;11.66;53.53;97150.53;4196197;28;5136;-67